Time;durP1;ratioP1;P1;durP2;ratioP2;P2;SDS_P1;SDS_P2;PMS_P1;PMS_P2;Temp;Humidity;BMP_temperature;BMP_pressure;BME280_temperature;BME280_humidity;BME280_pressure;Samples;Min_cycle;Max_cycle;Signal;HPM_P1;HPM_P2
2022/08/14 00:01:08;;;;;;;;;;;;;;;28.17;38.49;99921.41;4977982;28;1022;-42
2022/08/14 00:03:33;;;;;;;;;;;;;;;28.16;39.72;99920.56;4978453;28;916;-42
2022/08/14 00:05:59;;;;;;;;;;;;;;;28.31;37.52;99923.03;4978411;28;972;-42
2022/08/14 00:08:25;;;;;;;;;;;;;;;27.98;39.34;99902.28;4978520;28;1154;-42
2022/08/14 00:10:50;;;;;;;;;;;;;;;28.30;37.38;99896.19;4977958;28;1210;-42
2022/08/14 00:13:17;;;;;;;;;;;;;;;28.19;38.84;99895.81;4974528;28;1902;-43
2022/08/14 00:15:43;;;;;;;;;;;;;;;28.08;40.11;99886.47;4977953;28;920;-42
2022/08/14 00:18:11;;;;;;;;;;;;;;;28.29;37.62;99892.69;4977862;28;1046;-42
2022/08/14 00:20:37;;;;;;;;;;;;;;;27.94;39.03;99884.84;4977349;28;991;-42
2022/08/14 00:23:03;;;;;;;;;;;;;;;28.34;37.31;99882.06;4977338;28;1003;-42
2022/08/14 00:25:28;;;;;;;;;;;;;;;28.50;36.92;99890.75;4977628;28;987;-42
2022/08/14 00:27:54;;;;;;;;;;;;;;;28.52;36.60;99877.00;4977221;28;897;-42
2022/08/14 00:30:19;;;;;;;;;;;;;;;28.55;36.28;99866.59;4977202;28;1008;-41
2022/08/14 00:32:44;;;;;;;;;;;;;;;28.03;37.86;99878.16;4976273;28;999;-41
2022/08/14 00:35:10;;;;;;;;;;;;;;;28.48;38.32;99882.84;4977346;28;1989;-43
2022/08/14 00:37:37;;;;;;;;;;;;;;;28.32;37.58;99878.72;4960025;28;1456;-43
2022/08/14 00:40:02;;;;;;;;;;;;;;;27.95;39.08;99884.63;4977204;28;867;-42
2022/08/14 00:42:28;;;;;;;;;;;;;;;28.41;36.76;99890.16;4977473;28;1157;-42
2022/08/14 00:44:54;;;;;;;;;;;;;;;28.17;37.73;99889.78;4977188;28;1062;-42
2022/08/14 00:47:22;;;;;;;;;;;;;;;28.42;38.38;99883.72;4977473;28;1035;-43
2022/08/14 00:49:47;;;;;;;;;;;;;;;28.41;36.94;99884.75;4977325;28;1122;-42
2022/08/14 00:52:14;;;;;;;;;;;;;;;28.07;38.03;99886.69;4977038;28;833;-42
2022/08/14 00:54:40;;;;;;;;;;;;;;;28.46;36.28;99882.22;4977277;28;1981;-42
2022/08/14 00:57:05;;;;;;;;;;;;;;;28.29;37.15;99883.72;4975876;28;1046;-42
2022/08/14 00:59:30;;;;;;;;;;;;;;;28.26;39.04;99876.84;4976822;28;1102;-42
2022/08/14 01:01:56;;;;;;;;;;;;;;;28.35;36.95;99883.75;4977310;28;1047;-42
2022/08/14 01:04:22;;;;;;;;;;;;;;;28.25;37.43;99891.44;4977164;28;974;-43
2022/08/14 01:06:49;;;;;;;;;;;;;;;28.46;36.72;99886.84;4977237;28;1213;-42
2022/08/14 01:09:14;;;;;;;;;;;;;;;28.55;36.17;99879.28;4975683;28;967;-44
2022/08/14 01:11:40;;;;;;;;;;;;;;;28.19;38.87;99886.88;4976880;28;1178;-43
2022/08/14 01:14:05;;;;;;;;;;;;;;;28.47;36.24;99891.19;4976878;28;1906;-42
2022/08/14 01:16:30;;;;;;;;;;;;;;;28.23;36.69;99890.78;4976625;28;1173;-44
2022/08/14 01:21:39;;;;;;;;;;;;;;;28.40;36.36;99890.38;4976595;28;987;-43
2022/08/14 01:24:09;;;;;;;;;;;;;;;28.26;36.93;99886.84;4975969;28;1015;-42
2022/08/14 01:26:34;;;;;;;;;;;;;;;28.43;36.14;99888.06;4976856;28;944;-42
2022/08/14 01:28:59;;;;;;;;;;;;;;;28.41;36.43;99881.22;4976869;28;1119;-43
2022/08/14 01:31:26;;;;;;;;;;;;;;;28.23;38.76;99880.81;4976732;28;971;-42
2022/08/14 01:33:52;;;;;;;;;;;;;;;27.06;41.16;99893.66;4974635;28;1986;-42
2022/08/14 01:36:20;;;;;;;;;;;;;;;27.54;37.69;99891.03;4980757;28;909;-41
2022/08/14 01:38:47;;;;;;;;;;;;;;;27.42;39.26;99894.38;4976467;28;1105;-42
2022/08/14 01:41:13;;;;;;;;;;;;;;;27.97;36.89;99889.81;4980280;28;1110;-42
2022/08/14 01:43:48;;;;;;;;;;;;;;;27.89;37.03;99893.56;4980545;28;1067;-42
2022/08/14 01:46:17;;;;;;;;;;;;;;;27.65;39.58;99884.19;4980158;28;1161;-42
2022/08/14 01:48:43;;;;;;;;;;;;;;;28.23;36.14;99880.81;4980652;28;937;-42
2022/08/14 01:51:09;;;;;;;;;;;;;;;27.97;37.27;99889.81;4976920;28;1126;-42
2022/08/14 01:53:34;;;;;;;;;;;;;;;28.25;37.81;99894.13;4980651;28;1959;-44
2022/08/14 01:56:01;;;;;;;;;;;;;;;28.17;36.48;99903.31;4979953;28;1110;-42
2022/08/14 01:58:26;;;;;;;;;;;;;;;27.77;38.84;99893.38;4980502;28;995;-41
2022/08/14 02:00:53;;;;;;;;;;;;;;;28.24;35.64;99887.06;4980621;28;1098;-42
2022/08/14 02:03:18;;;;;;;;;;;;;;;28.08;36.81;99885.63;4980279;28;995;-42
2022/08/14 02:05:44;;;;;;;;;;;;;;;28.19;38.05;99892.28;4980253;28;992;-42
2022/08/14 02:08:09;;;;;;;;;;;;;;;28.29;36.34;99892.69;4980166;28;975;-42
2022/08/14 02:10:34;;;;;;;;;;;;;;;27.92;37.72;99884.19;4980140;28;1129;-41
2022/08/14 02:13:06;;;;;;;;;;;;;;;28.28;35.76;99885.59;4979914;28;1914;-42
2022/08/14 02:15:32;;;;;;;;;;;;;;;28.28;36.39;99877.47;4979311;28;1017;-41
2022/08/14 02:18:00;;;;;;;;;;;;;;;28.13;38.01;99875.00;4979936;28;999;-42
2022/08/14 02:20:27;;;;;;;;;;;;;;;28.32;35.69;99869.78;4979746;28;1197;-42
2022/08/14 02:22:53;;;;;;;;;;;;;;;28.02;36.46;99873.81;4980242;28;1003;-42
2022/08/14 02:25:18;;;;;;;;;;;;;;;28.34;35.85;99873.94;4979658;28;1004;-42
2022/08/14 02:27:44;;;;;;;;;;;;;;;28.26;35.60;99874.16;4979134;28;936;-42
2022/08/14 02:30:10;;;;;;;;;;;;;;;27.98;37.94;99867.97;4979607;28;956;-42
2022/08/14 02:32:37;;;;;;;;;;;;;;;28.29;35.56;99873.75;4979738;28;1003;-42
2022/08/14 02:35:05;;;;;;;;;;;;;;;28.30;35.95;99875.41;4979464;28;1898;-42
2022/08/14 02:37:31;;;;;;;;;;;;;;;28.35;36.77;99864.81;4974965;28;992;-43
2022/08/14 02:39:56;;;;;;;;;;;;;;;28.25;35.70;99869.78;4979314;28;980;-41
2022/08/14 02:42:23;;;;;;;;;;;;;;;28.01;37.28;99872.13;4979250;28;1123;-42
2022/08/14 02:44:48;;;;;;;;;;;;;;;28.38;35.48;99860.84;4979484;28;925;-42
2022/08/14 02:47:14;;;;;;;;;;;;;;;28.35;36.15;99870.22;4979279;28;1122;-43
2022/08/14 02:49:39;;;;;;;;;;;;;;;28.39;36.47;99864.38;4979806;28;1217;-43
2022/08/14 02:52:06;;;;;;;;;;;;;;;28.32;35.75;99867.91;4977442;28;984;-42
2022/08/14 02:54:33;;;;;;;;;;;;;;;28.11;36.30;99867.13;4971298;28;2845;-42
2022/08/14 02:56:58;;;;;;;;;;;;;;;28.42;35.35;99859.38;4982476;28;1844;-41
2022/08/14 02:59:24;;;;;;;;;;;;;;;28.62;34.84;99866.56;4986050;28;1946;-42
2022/08/14 03:01:49;;;;;;;;;;;;;;;28.56;36.03;99864.75;4980728;28;2053;-42
2022/08/14 03:04:15;;;;;;;;;;;;;;;27.97;39.55;99868.19;4981589;28;1978;-43
2022/08/14 03:06:42;;;;;;;;;;;;;;;27.63;38.58;99860.06;4986287;28;2063;-42
2022/08/14 03:09:07;;;;;;;;;;;;;;;27.22;41.85;99859.22;4986161;28;1789;-41
2022/08/14 03:11:32;;;;;;;;;;;;;;;27.17;42.47;99867.09;4978530;28;2148;-42
2022/08/14 03:13:58;;;;;;;;;;;;;;;27.09;42.96;99866.25;4977399;28;1910;-42
2022/08/14 03:16:24;;;;;;;;;;;;;;;27.13;42.87;99866.69;4977673;28;936;-42
2022/08/14 03:18:52;;;;;;;;;;;;;;;27.25;42.43;99873.16;4977766;28;1022;-42
2022/08/14 03:21:19;;;;;;;;;;;;;;;27.24;42.64;99862.56;4977863;28;1241;-42
2022/08/14 03:23:44;;;;;;;;;;;;;;;27.23;42.95;99863.56;4977591;28;996;-42
2022/08/14 03:26:11;;;;;;;;;;;;;;;27.17;43.21;99861.72;4978050;28;1142;-42
2022/08/14 03:28:39;;;;;;;;;;;;;;;27.00;43.41;99859.34;4977832;28;900;-43
2022/08/14 03:31:05;;;;;;;;;;;;;;;27.08;43.38;99869.16;4977849;28;944;-42
2022/08/14 03:33:30;;;;;;;;;;;;;;;27.11;43.03;99868.78;4971863;28;1970;-41
2022/08/14 03:35:55;;;;;;;;;;;;;;;27.06;43.63;99868.56;4977705;28;1003;-42
2022/08/14 03:38:21;;;;;;;;;;;;;;;27.09;43.80;99863.56;4978107;28;1035;-41
2022/08/14 03:40:46;;;;;;;;;;;;;;;27.08;43.93;99864.59;4977427;28;1816;-42
2022/08/14 03:43:11;;;;;;;;;;;;;;;27.16;43.41;99862.75;4977598;28;1102;-43
2022/08/14 03:45:37;;;;;;;;;;;;;;;27.31;42.13;99862.56;4977714;28;999;-42
2022/08/14 03:48:03;;;;;;;;;;;;;;;27.38;42.93;99860.69;4977560;28;1174;-42
2022/08/14 03:50:29;;;;;;;;;;;;;;;27.20;43.54;99864.00;4978151;28;1003;-42
2022/08/14 03:52:54;;;;;;;;;;;;;;;27.34;42.77;99865.66;4977516;28;1236;-43
2022/08/14 03:55:19;;;;;;;;;;;;;;;27.45;42.09;99868.78;4977815;28;1109;-42
2022/08/14 03:57:44;;;;;;;;;;;;;;;27.76;42.07;99867.38;4977318;28;1166;-42
2022/08/14 04:00:12;;;;;;;;;;;;;;;27.70;41.69;99863.66;4977719;28;964;-42
2022/08/14 04:02:37;;;;;;;;;;;;;;;27.68;41.68;99875.66;4971309;28;999;-43
2022/08/14 04:05:03;;;;;;;;;;;;;;;27.42;43.92;99870.06;4977015;28;995;-43
2022/08/14 04:07:29;;;;;;;;;;;;;;;27.24;44.75;99870.66;4977785;28;975;-42
2022/08/14 04:09:54;;;;;;;;;;;;;;;26.95;45.50;99865.38;4977257;28;2214;-42
2022/08/14 04:12:20;;;;;;;;;;;;;;;26.25;43.03;99863.59;4977707;28;1051;-41
2022/08/14 04:14:45;;;;;;;;;;;;;;;22.01;48.81;99857.84;4977407;28;1993;-42
2022/08/14 04:17:11;;;;;;;;;;;;;;;20.54;45.38;99864.44;4966571;28;996;-42
2022/08/14 04:19:37;;;;;;;;;;;;;;;19.78;43.26;99859.66;4977450;28;995;-42
2022/08/14 04:22:03;;;;;;;;;;;;;;;18.91;42.04;99858.31;4977314;28;1141;-41
2022/08/14 04:24:28;;;;;;;;;;;;;;;18.55;40.28;99857.22;4977464;28;979;-42
2022/08/14 04:26:54;;;;;;;;;;;;;;;17.92;39.80;99850.69;4977305;28;972;-42
2022/08/14 04:29:19;;;;;;;;;;;;;;;17.47;38.87;99858.28;4976843;28;918;-42
2022/08/14 04:31:45;;;;;;;;;;;;;;;16.13;42.64;99858.31;4977074;28;936;-42
2022/08/14 04:34:11;;;;;;;;;;;;;;;15.70;46.70;99861.94;4977499;28;1982;-42
2022/08/14 04:43:34;;;;;;;;;;;;;;;15.66;48.58;99853.41;4977138;28;1059;-40
2022/08/14 04:44:49;;;;;;;;;;;;;;;16.01;54.72;99854.94;4973726;28;909;-43
2022/08/14 04:50:02;;;;;;;;;;;;;;;19.28;49.88;99869.91;4976453;28;888;-40
2022/08/14 04:52:28;;;;;;;;;;;;;;;21.67;46.28;99861.50;4976495;28;1074;-40
2022/08/14 04:54:53;;;;;;;;;;;;;;;23.01;39.96;99862.00;4976843;28;1973;-39
2022/08/14 04:57:18;;;;;;;;;;;;;;;23.62;40.99;99871.19;4977221;28;999;-39
2022/08/14 04:59:43;;;;;;;;;;;;;;;24.27;36.95;99861.84;4976493;28;1015;-40
2022/08/14 05:02:09;;;;;;;;;;;;;;;24.36;37.67;99870.66;4977085;28;1101;-40
2022/08/14 05:04:34;;;;;;;;;;;;;;;24.64;38.88;99864.59;4976265;28;964;-40
2022/08/14 05:06:59;;;;;;;;;;;;;;;24.82;35.82;99856.94;4977199;28;1011;-40
2022/08/14 05:09:25;;;;;;;;;;;;;;;25.03;35.43;99859.88;4976665;28;1823;-40
2022/08/14 05:11:50;;;;;;;;;;;;;;;25.13;34.60;99851.50;4976906;28;1150;-40
2022/08/14 05:14:17;;;;;;;;;;;;;;;25.01;34.94;99852.00;4976599;28;1946;-40
2022/08/14 05:16:42;;;;;;;;;;;;;;;25.06;37.77;99841.50;4979921;28;1134;-40
2022/08/14 05:19:09;;;;;;;;;;;;;;;25.09;33.94;99851.03;4980493;28;1038;-39
2022/08/14 05:21:34;;;;;;;;;;;;;;;25.37;33.58;99847.63;4980281;28;1037;-39
2022/08/14 05:24:00;;;;;;;;;;;;;;;25.23;36.14;99841.25;4980800;28;1043;-41
2022/08/14 05:26:25;;;;;;;;;;;;;;;25.22;33.51;99844.16;4980348;28;932;-41
2022/08/14 05:28:50;;;;;;;;;;;;;;;25.46;34.82;99840.22;4980013;28;1188;-41
2022/08/14 05:31:16;;;;;;;;;;;;;;;25.37;32.92;99834.16;4980561;28;1035;-39
2022/08/14 05:33:42;;;;;;;;;;;;;;;25.39;33.80;99842.03;4980197;28;1958;-40
2022/08/14 05:36:08;;;;;;;;;;;;;;;25.37;35.69;99838.69;4980483;28;991;-41
2022/08/14 05:38:34;;;;;;;;;;;;;;;25.41;33.31;99848.03;4980279;28;1106;-41
2022/08/14 05:41:00;;;;;;;;;;;;;;;25.42;34.95;99842.44;4979599;28;2575;-41
2022/08/14 05:43:25;;;;;;;;;;;;;;;25.50;32.87;99838.81;4962806;28;1385;-41
2022/08/14 05:45:50;;;;;;;;;;;;;;;25.71;32.24;99842.50;4980012;28;1141;-41
2022/08/14 05:48:16;;;;;;;;;;;;;;;25.68;35.65;99837.53;4980228;28;987;-42
2022/08/14 05:50:41;;;;;;;;;;;;;;;25.60;32.82;99833.09;4979787;28;1058;-41
2022/08/14 05:53:07;;;;;;;;;;;;;;;25.83;32.26;99840.13;4980079;28;1953;-40
2022/08/14 05:55:32;;;;;;;;;;;;;;;25.75;32.42;99843.81;4979755;28;1030;-41
2022/08/14 05:58:00;;;;;;;;;;;;;;;25.71;32.05;99841.69;4979903;28;1047;-40
2022/08/14 06:00:30;;;;;;;;;;;;;;;25.54;35.49;99841.94;4979921;28;991;-40
2022/08/14 06:02:56;;;;;;;;;;;;;;;25.72;32.60;99840.66;4980177;28;1089;-40
2022/08/14 06:05:21;;;;;;;;;;;;;;;25.85;34.52;99840.75;4979321;28;971;-40
2022/08/14 06:07:47;;;;;;;;;;;;;;;26.06;33.92;99849.78;4979787;28;1103;-40
2022/08/14 06:10:12;;;;;;;;;;;;;;;21.97;43.53;99840.44;4979246;28;2426;-39
2022/08/14 06:12:37;;;;;;;;;;;;;;;20.06;48.93;99836.34;4979321;28;1554;-41
2022/08/14 06:15:04;;;;;;;;;;;;;;;19.42;51.07;99831.16;4979296;28;1978;-39
2022/08/14 06:17:29;;;;;;;;;;;;;;;19.25;51.76;99833.69;4979174;28;1513;-39
2022/08/14 06:19:55;;;;;;;;;;;;;;;19.15;52.18;99830.28;4979692;28;991;-40
2022/08/14 06:22:20;;;;;;;;;;;;;;;20.22;54.12;99832.06;4979524;28;936;-40
2022/08/14 06:24:45;;;;;;;;;;;;;;;23.35;43.42;99830.44;4979121;28;1134;-40
2022/08/14 06:27:11;;;;;;;;;;;;;;;24.60;41.46;99825.66;4979250;28;979;-41
2022/08/14 06:29:36;;;;;;;;;;;;;;;25.49;42.48;99826.34;4978995;28;1173;-42
2022/08/14 06:32:02;;;;;;;;;;;;;;;25.85;37.29;99829.13;4979053;28;1015;-42
2022/08/14 06:34:27;;;;;;;;;;;;;;;26.46;37.17;99822.25;4979266;28;1971;-42
2022/08/14 06:36:55;;;;;;;;;;;;;;;26.61;35.44;99830.19;4979034;28;983;-42
2022/08/14 06:39:21;;;;;;;;;;;;;;;26.65;36.61;99827.91;4979341;28;2247;-42
2022/08/14 06:41:46;;;;;;;;;;;;;;;26.59;39.33;99831.44;4978408;28;1123;-42
2022/08/14 06:44:12;;;;;;;;;;;;;;;26.78;35.43;99819.88;4978929;28;1162;-42
2022/08/14 06:46:37;;;;;;;;;;;;;;;26.80;37.70;99827.75;4978811;28;1026;-42
2022/08/14 06:49:02;;;;;;;;;;;;;;;27.04;34.97;99822.03;4979224;28;1064;-42
2022/08/14 06:51:28;;;;;;;;;;;;;;;26.99;36.14;99818.03;4978466;28;1078;-42
2022/08/14 06:53:53;;;;;;;;;;;;;;;26.96;37.41;99828.44;4978725;28;1910;-42
2022/08/14 06:56:18;;;;;;;;;;;;;;;22.62;46.67;99815.47;4979074;28;1043;-42
2022/08/14 06:58:44;;;;;;;;;;;;;;;20.88;49.53;99810.13;4978660;28;933;-42
2022/08/14 07:06:38;;;;;;;;;;;;;;;19.81;53.01;99809.47;4978295;28;1075;-42
2022/08/14 07:09:03;;;;;;;;;;;;;;;19.79;53.46;99808.78;4978835;28;995;-42
2022/08/14 07:11:29;;;;;;;;;;;;;;;19.73;53.85;99805.91;4975744;28;2646;-41
2022/08/14 07:13:54;;;;;;;;;;;;;;;21.98;50.63;99815.34;4978553;28;1986;-40
2022/08/14 07:16:20;;;;;;;;;;;;;;;24.40;44.50;99818.19;4978517;28;1011;-41
2022/08/14 07:18:45;;;;;;;;;;;;;;;23.65;44.67;99822.47;4978281;28;1129;-41
2022/08/14 07:21:10;;;;;;;;;;;;;;;20.36;50.85;99811.09;4978280;28;960;-41
2022/08/14 07:23:35;;;;;;;;;;;;;;;19.75;53.23;99806.59;4978474;28;1138;-42
2022/08/14 07:26:01;;;;;;;;;;;;;;;19.54;53.74;99803.28;4978077;28;1051;-42
2022/08/14 07:28:33;;;;;;;;;;;;;;;19.53;54.07;99814.09;4977895;28;1027;-41
2022/08/14 07:30:59;;;;;;;;;;;;;;;19.48;54.04;99809.25;4975139;28;845;-42
2022/08/14 07:33:25;;;;;;;;;;;;;;;19.54;54.12;99800.59;4975689;28;1906;-41
2022/08/14 07:35:50;;;;;;;;;;;;;;;21.84;50.48;99802.63;4971854;28;963;-41
2022/08/14 07:38:16;;;;;;;;;;;;;;;24.05;46.73;99797.22;4977349;28;999;-41
2022/08/14 07:40:41;;;;;;;;;;;;;;;25.24;40.32;99802.53;4977685;28;2302;-41
2022/08/14 07:43:07;;;;;;;;;;;;;;;24.32;43.44;99803.81;4978059;28;1475;-42
2022/08/14 07:45:32;;;;;;;;;;;;;;;20.88;51.38;99811.94;4978096;28;876;-41
2022/08/14 07:47:57;;;;;;;;;;;;;;;20.10;52.98;99802.16;4977534;28;958;-41
2022/08/14 07:50:23;;;;;;;;;;;;;;;19.86;53.36;99792.13;4977564;28;987;-41
2022/08/14 07:52:48;;;;;;;;;;;;;;;19.82;53.42;99788.94;4978000;28;1082;-42
2022/08/14 07:55:14;;;;;;;;;;;;;;;19.77;54.02;99780.59;4977472;28;1891;-42
2022/08/14 07:57:39;;;;;;;;;;;;;;;19.82;54.07;99778.25;4978190;28;1050;-42
2022/08/14 08:00:09;;;;;;;;;;;;;;;22.09;50.17;99790.03;4977668;28;1197;-42
2022/08/14 08:02:35;;;;;;;;;;;;;;;24.34;47.32;99785.66;4977796;28;1074;-41
2022/08/14 08:05:00;;;;;;;;;;;;;;;20.98;52.00;99777.91;4973819;28;1181;-41
2022/08/14 08:07:26;;;;;;;;;;;;;;;20.19;53.78;99779.84;4976032;28;1385;-41
2022/08/14 08:09:54;;;;;;;;;;;;;;;19.80;54.36;99765.09;4977025;28;2266;-40
2022/08/14 08:12:19;;;;;;;;;;;;;;;19.66;54.85;99768.34;4977588;28;992;-41
2022/08/14 08:14:45;;;;;;;;;;;;;;;19.64;54.82;99772.97;4977591;28;1907;-41
2022/08/14 08:17:11;;;;;;;;;;;;;;;19.60;55.23;99769.81;4977916;28;1019;-41
2022/08/14 08:19:37;;;;;;;;;;;;;;;19.93;59.16;99769.16;4976885;28;898;-41
2022/08/14 08:22:02;;;;;;;;;;;;;;;23.04;47.81;99766.94;4977551;28;1110;-41
2022/08/14 08:24:28;;;;;;;;;;;;;;;21.24;49.91;99760.03;4977032;28;1046;-41
2022/08/14 08:26:53;;;;;;;;;;;;;;;19.64;53.36;99759.63;4977279;28;1110;-41
2022/08/14 08:29:19;;;;;;;;;;;;;;;19.51;54.91;99760.91;4975385;28;1086;-41
2022/08/14 08:31:49;;;;;;;;;;;;;;;19.40;55.43;99747.81;4977092;28;891;-41
2022/08/14 08:34:14;;;;;;;;;;;;;;;19.39;55.64;99749.66;4977176;28;1895;-41
2022/08/14 08:36:40;;;;;;;;;;;;;;;19.40;56.03;99753.16;4977134;28;1471;-41
2022/08/14 08:39:05;;;;;;;;;;;;;;;19.62;57.93;99754.47;4977084;28;1162;-39
2022/08/14 08:41:44;;;;;;;;;;;;;;;22.50;50.42;99748.00;4972334;28;2761;-43
2022/08/14 08:44:10;;;;;;;;;;;;;;;21.14;50.50;99745.00;4977456;28;1158;-41
2022/08/14 08:46:35;;;;;;;;;;;;;;;19.77;53.70;99753.91;4976994;28;1054;-42
2022/08/14 08:49:00;;;;;;;;;;;;;;;19.64;54.78;99740.97;4976990;28;1015;-43
2022/08/14 08:51:26;;;;;;;;;;;;;;;19.62;55.05;99741.13;4976962;28;1224;-41
2022/08/14 08:53:55;;;;;;;;;;;;;;;19.66;55.05;99741.66;4976945;28;1903;-41
2022/08/14 08:56:20;;;;;;;;;;;;;;;19.72;55.23;99740.19;4976876;28;1245;-43
2022/08/14 08:58:46;;;;;;;;;;;;;;;20.00;59.43;99734.66;4975244;28;1126;-41
2022/08/14 09:01:11;;;;;;;;;;;;;;;23.16;48.16;99732.47;4976237;28;1189;-41
2022/08/14 09:03:36;;;;;;;;;;;;;;;21.04;50.88;99728.28;4976583;28;971;-41
2022/08/14 09:06:02;;;;;;;;;;;;;;;19.75;53.45;99718.53;4976590;28;872;-41
2022/08/14 09:08:31;;;;;;;;;;;;;;;19.62;54.94;99718.97;4976859;28;1035;-41
2022/08/14 09:10:58;;;;;;;;;;;;;;;19.65;55.26;99729.31;4976516;28;2503;-41
2022/08/14 09:13:25;;;;;;;;;;;;;;;19.56;55.72;99728.41;4976711;28;1958;-41
2022/08/14 09:15:50;;;;;;;;;;;;;;;19.60;55.80;99719.13;4977098;28;1026;-41
2022/08/14 09:18:16;;;;;;;;;;;;;;;19.55;57.34;99714.25;4974945;28;1086;-41
2022/08/14 09:20:42;;;;;;;;;;;;;;;22.57;49.91;99722.13;4975624;28;996;-41
2022/08/14 09:23:08;;;;;;;;;;;;;;;21.20;50.84;99708.72;4977067;28;1078;-41
2022/08/14 09:25:34;;;;;;;;;;;;;;;19.68;54.04;99707.66;4976546;28;1177;-41
2022/08/14 09:27:59;;;;;;;;;;;;;;;19.55;55.39;99706.22;4976642;28;1004;-40
2022/08/14 09:30:24;;;;;;;;;;;;;;;19.59;55.61;99693.41;4970700;28;995;-43
2022/08/14 09:33:02;;;;;;;;;;;;;;;19.63;55.70;99693.94;4974362;28;960;-42
2022/08/14 09:35:40;;;;;;;;;;;;;;;19.62;56.17;99695.78;4976352;28;1903;-42
2022/08/14 09:38:08;;;;;;;;;;;;;;;19.80;58.24;99692.22;4970525;28;1035;-42
2022/08/14 09:40:33;;;;;;;;;;;;;;;22.88;49.48;99688.28;4976475;28;2413;-43
2022/08/14 09:43:17;;;;;;;;;;;;;;;21.20;51.22;99690.00;4976170;28;1109;-42
2022/08/14 09:45:46;;;;;;;;;;;;;;;19.82;53.87;99688.38;4972432;28;996;-42
2022/08/14 09:48:16;;;;;;;;;;;;;;;19.62;55.20;99676.28;4976504;28;956;-43
2022/08/14 09:50:48;;;;;;;;;;;;;;;19.56;55.25;99678.59;4976714;28;1170;-42
2022/08/14 09:53:14;;;;;;;;;;;;;;;19.50;55.50;99675.72;4976712;28;1899;-43
2022/08/14 09:55:40;;;;;;;;;;;;;;;19.47;55.61;99686.69;4976065;28;1182;-42
2022/08/14 09:58:16;;;;;;;;;;;;;;;19.45;55.75;99689.53;4975966;28;1035;-42
2022/08/14 10:00:45;;;;;;;;;;;;;;;20.11;60.88;99696.19;4976938;28;1406;-42
2022/08/14 10:03:10;;;;;;;;;;;;;;;23.32;47.10;99697.44;4980050;28;980;-42
2022/08/14 10:05:36;;;;;;;;;;;;;;;24.67;44.88;99694.81;4980025;28;975;-42
2022/08/14 10:08:02;;;;;;;;;;;;;;;25.61;41.70;99689.31;4979320;28;880;-42
2022/08/14 10:10:28;;;;;;;;;;;;;;;26.03;40.73;99691.19;4973373;28;2393;-42
2022/08/14 10:12:54;;;;;;;;;;;;;;;25.86;43.60;99691.53;4979727;28;996;-42
2022/08/14 10:15:20;;;;;;;;;;;;;;;21.48;50.67;99686.94;4979793;28;1903;-42
2022/08/14 10:17:48;;;;;;;;;;;;;;;20.25;52.36;99678.72;4979592;28;1216;-42
2022/08/14 10:20:14;;;;;;;;;;;;;;;20.07;53.44;99685.00;4979460;28;893;-42
2022/08/14 10:22:39;;;;;;;;;;;;;;;20.08;54.28;99692.03;4979958;28;1153;-42
2022/08/14 10:25:13;;;;;;;;;;;;;;;20.13;54.23;99680.84;4978383;28;1051;-43
2022/08/14 10:27:38;;;;;;;;;;;;;;;20.08;54.54;99675.16;4979066;28;960;-43
2022/08/14 10:30:10;;;;;;;;;;;;;;;20.08;54.93;99677.81;4979047;28;968;-42
2022/08/14 10:32:42;;;;;;;;;;;;;;;20.10;55.13;99689.19;4979364;28;908;-42
2022/08/14 10:35:08;;;;;;;;;;;;;;;22.53;51.60;99696.72;4979377;28;1902;-42
2022/08/14 10:37:37;;;;;;;;;;;;;;;22.65;48.39;99699.84;4978816;28;1062;-42
2022/08/14 10:40:03;;;;;;;;;;;;;;;20.46;52.54;99709.47;4979065;28;2376;-43
2022/08/14 10:42:35;;;;;;;;;;;;;;;20.01;53.81;99713.16;4979229;28;1070;-42
2022/08/14 10:45:00;;;;;;;;;;;;;;;20.04;54.43;99723.53;4979137;28;1038;-42
2022/08/14 10:47:32;;;;;;;;;;;;;;;19.90;54.48;99719.59;4979112;28;1016;-42
2022/08/14 10:49:58;;;;;;;;;;;;;;;19.87;54.86;99719.09;4977375;28;1019;-41
2022/08/14 10:52:25;;;;;;;;;;;;;;;19.81;54.71;99708.06;4979220;28;1023;-42
2022/08/14 10:54:51;;;;;;;;;;;;;;;19.88;54.48;99699.41;4978275;28;1902;-42
2022/08/14 10:57:17;;;;;;;;;;;;;;;19.76;55.02;99691.69;4979169;28;952;-42
2022/08/14 10:59:48;;;;;;;;;;;;;;;19.83;54.82;99678.53;4978895;28;908;-42
2022/08/14 11:02:30;;;;;;;;;;;;;;;21.93;52.99;99685.66;4978860;28;1047;-42
2022/08/14 11:04:58;;;;;;;;;;;;;;;24.43;46.62;99668.09;4978838;28;1040;-44
2022/08/14 11:07:24;;;;;;;;;;;;;;;23.15;46.37;99664.59;4978321;28;1031;-42
2022/08/14 11:09:56;;;;;;;;;;;;;;;20.53;51.35;99662.41;4978593;28;2269;-42
2022/08/14 11:12:22;;;;;;;;;;;;;;;20.00;53.04;99660.75;4971077;28;1015;-42
2022/08/14 11:14:54;;;;;;;;;;;;;;;19.95;53.83;99661.22;4978643;28;2010;-42
2022/08/14 11:17:19;;;;;;;;;;;;;;;19.90;54.10;99660.06;4978638;28;1122;-42
2022/08/14 11:19:45;;;;;;;;;;;;;;;19.73;54.60;99651.13;4978622;28;1166;-42
2022/08/14 11:22:10;;;;;;;;;;;;;;;19.76;54.83;99646.31;4978413;28;991;-44
2022/08/14 11:24:36;;;;;;;;;;;;;;;20.66;58.21;99651.22;4978474;28;1030;-42
2022/08/14 11:27:01;;;;;;;;;;;;;;;23.78;46.17;99663.41;4968326;28;1062;-43
2022/08/14 11:29:26;;;;;;;;;;;;;;;20.63;51.71;99659.56;4972097;28;999;-42
2022/08/14 11:31:52;;;;;;;;;;;;;;;19.61;53.05;99655.91;4973400;28;956;-42
2022/08/14 11:34:18;;;;;;;;;;;;;;;19.55;54.43;99660.06;4976941;28;2007;-43
2022/08/14 11:36:43;;;;;;;;;;;;;;;19.31;53.57;99672.25;4978447;28;979;-42
2022/08/14 11:39:16;;;;;;;;;;;;;;;19.41;53.41;99673.00;4977915;28;1145;-43
2022/08/14 11:41:42;;;;;;;;;;;;;;;19.42;53.68;99673.81;4976966;28;1015;-43
2022/08/14 11:44:07;;;;;;;;;;;;;;;19.35;54.44;99678.97;4977583;28;1162;-42
2022/08/14 11:46:32;;;;;;;;;;;;;;;21.69;51.55;99666.81;4977772;28;1106;-42
2022/08/14 11:49:00;;;;;;;;;;;;;;;24.04;45.02;99658.56;4975993;28;988;-42
2022/08/14 11:51:27;;;;;;;;;;;;;;;25.01;42.36;99668.22;4978133;28;1166;-43
2022/08/14 11:53:53;;;;;;;;;;;;;;;25.52;43.40;99668.97;4977832;28;1910;-42
2022/08/14 11:56:19;;;;;;;;;;;;;;;21.15;51.12;99655.72;4977185;28;1026;-42
2022/08/14 11:58:44;;;;;;;;;;;;;;;20.06;53.01;99651.28;4972213;28;975;-42
2022/08/14 12:01:09;;;;;;;;;;;;;;;19.95;53.92;99639.88;4972252;28;1289;-42
2022/08/14 12:03:35;;;;;;;;;;;;;;;19.77;54.50;99637.31;4977711;28;1018;-42
2022/08/14 12:06:07;;;;;;;;;;;;;;;19.75;54.71;99638.47;4977347;28;1038;-43
2022/08/14 12:08:34;;;;;;;;;;;;;;;19.79;54.62;99626.47;4977376;28;1200;-42
2022/08/14 12:10:59;;;;;;;;;;;;;;;19.88;57.04;99622.00;4977381;28;2501;-42
2022/08/14 12:13:25;;;;;;;;;;;;;;;23.00;49.01;99630.50;4977524;28;1898;-42
2022/08/14 12:15:57;;;;;;;;;;;;;;;21.64;49.78;99624.50;4975919;28;1385;-42
2022/08/14 12:18:31;;;;;;;;;;;;;;;20.00;52.86;99627.88;4969455;28;1070;-42
2022/08/14 12:20:56;;;;;;;;;;;;;;;19.73;54.10;99638.66;4977220;28;845;-42
2022/08/14 12:23:22;;;;;;;;;;;;;;;19.81;54.35;99641.34;4976741;28;988;-42
2022/08/14 12:25:48;;;;;;;;;;;;;;;19.83;54.57;99643.84;4973486;28;971;-42
2022/08/14 12:28:14;;;;;;;;;;;;;;;19.80;55.08;99649.50;4973139;28;1157;-42
2022/08/14 12:30:41;;;;;;;;;;;;;;;19.91;55.16;99653.72;4977062;28;1241;-42
2022/08/14 12:33:20;;;;;;;;;;;;;;;20.02;58.09;99653.41;4975440;28;888;-42
2022/08/14 12:35:48;;;;;;;;;;;;;;;23.42;48.12;99656.94;4977076;28;1229;-42
2022/08/14 12:38:13;;;;;;;;;;;;;;;21.01;52.24;99662.63;4975779;28;1142;-42
2022/08/14 12:40:51;;;;;;;;;;;;;;;19.97;53.78;99654.91;4976856;28;1804;-42
2022/08/14 12:43:18;;;;;;;;;;;;;;;19.63;55.18;99660.13;4977398;28;1058;-42
2022/08/14 12:45:49;;;;;;;;;;;;;;;19.48;54.98;99653.69;4976747;28;935;-42
2022/08/14 12:48:15;;;;;;;;;;;;;;;19.39;55.19;99650.13;4976578;28;936;-42
2022/08/14 12:50:41;;;;;;;;;;;;;;;19.30;55.42;99652.75;4977152;28;960;-43
2022/08/14 12:53:06;;;;;;;;;;;;;;;19.33;55.26;99647.09;4976603;28;1149;-43
2022/08/14 12:55:34;;;;;;;;;;;;;;;20.79;56.27;99653.38;4976424;28;1903;-42
2022/08/14 12:58:01;;;;;;;;;;;;;;;23.80;45.86;99647.97;4976416;28;988;-42
2022/08/14 13:00:26;;;;;;;;;;;;;;;25.19;41.91;99644.34;4972384;28;999;-42
2022/08/14 13:02:52;;;;;;;;;;;;;;;25.49;45.71;99656.72;4976525;28;987;-43
2022/08/14 13:05:21;;;;;;;;;;;;;;;21.70;49.48;99644.41;4977345;28;924;-42
2022/08/14 13:07:47;;;;;;;;;;;;;;;19.93;52.60;99639.22;4977123;28;1113;-42
2022/08/14 13:10:15;;;;;;;;;;;;;;;19.63;54.74;99643.25;4976708;28;2414;-42
2022/08/14 13:12:41;;;;;;;;;;;;;;;19.51;55.01;99643.53;4976686;28;1074;-42